createdAt,value
2018-04-10T00:00:17.459Z,12.00
2018-04-10T00:02:53.109Z,11.90
2018-04-10T00:05:29.158Z,11.90
2018-04-10T00:08:04.841Z,11.90
2018-04-10T00:10:40.357Z,12.00
2018-04-10T00:13:16.233Z,12.00
2018-04-10T00:15:51.161Z,12.00
2018-04-10T00:18:27.005Z,12.00
2018-04-10T00:21:02.022Z,12.00
2018-04-10T00:23:37.110Z,11.90
2018-04-10T00:26:13.232Z,11.80
2018-04-10T00:28:48.731Z,11.80
2018-04-10T00:31:25.150Z,11.70
2018-04-10T00:34:00.999Z,11.70
2018-04-10T00:36:36.227Z,11.80
2018-04-10T00:39:12.320Z,11.80
2018-04-10T00:41:47.969Z,11.80
2018-04-10T00:44:23.962Z,11.80
2018-04-10T00:46:59.644Z,11.80
2018-04-10T00:49:35.500Z,11.80
2018-04-10T00:52:11.150Z,11.90
2018-04-10T00:54:46.805Z,11.90
2018-04-10T00:57:22.556Z,11.90
2018-04-10T00:59:57.545Z,11.90
2018-04-10T01:02:32.627Z,11.90
2018-04-10T01:05:09.222Z,11.90
2018-04-10T01:07:45.065Z,11.90
2018-04-10T01:10:20.642Z,12.00
2018-04-10T01:12:55.636Z,12.00
2018-04-10T01:15:30.590Z,12.00
2018-04-10T01:18:06.422Z,12.00
2018-04-10T01:20:42.899Z,12.10
2018-04-10T01:23:18.838Z,12.10
2018-04-10T01:25:54.489Z,12.10
2018-04-10T01:28:30.345Z,12.00
2018-04-10T01:31:06.098Z,12.00
2018-04-10T01:33:41.880Z,12.00
2018-04-10T01:36:17.610Z,12.00
2018-04-10T01:38:53.397Z,12.00
2018-04-10T01:41:29.049Z,12.00
2018-04-10T01:44:04.142Z,12.00
2018-04-10T01:46:39.590Z,12.00
2018-04-10T01:49:16.282Z,11.90
2018-04-10T01:51:51.908Z,11.90
2018-04-10T01:54:26.742Z,11.90
2018-04-10T01:57:02.720Z,11.90
2018-04-10T01:59:38.138Z,11.90
2018-04-10T02:02:14.062Z,11.90
2018-04-10T02:04:49.950Z,11.90
2018-04-10T02:07:24.789Z,11.90
2018-04-10T02:09:59.764Z,11.90
2018-04-10T02:12:35.673Z,11.90
2018-04-10T02:15:11.170Z,11.90
2018-04-10T02:17:47.889Z,11.90
2018-04-10T02:20:23.898Z,11.90
2018-04-10T02:22:59.697Z,11.90
2018-04-10T02:25:35.255Z,11.90
2018-04-10T02:28:10.693Z,11.90
2018-04-10T02:30:46.343Z,11.80
2018-04-10T02:33:21.839Z,11.80
2018-04-10T02:35:57.539Z,11.80
2018-04-10T02:38:32.471Z,11.80
2018-04-10T02:41:09.156Z,11.90
2018-04-10T02:43:44.897Z,11.90
2018-04-10T02:46:19.934Z,11.90
2018-04-10T02:48:55.568Z,11.90
2018-04-10T02:51:31.442Z,11.90
2018-04-10T02:54:06.879Z,11.80
2018-04-10T02:56:42.530Z,11.80
2018-04-10T02:59:17.413Z,11.80
2018-04-10T03:01:53.317Z,11.80
2018-04-10T03:04:28.708Z,11.80
2018-04-10T03:07:04.307Z,11.80
2018-04-10T03:09:39.649Z,11.80
2018-04-10T03:12:15.714Z,11.70
2018-04-10T03:14:51.258Z,11.80
2018-04-10T03:17:26.185Z,11.70
2018-04-10T03:20:01.948Z,11.70
2018-04-10T03:22:36.985Z,11.70
2018-04-10T03:25:11.809Z,11.60
2018-04-10T03:27:47.813Z,11.60
2018-04-10T03:30:23.462Z,11.60
2018-04-10T03:32:58.698Z,11.60
2018-04-10T03:35:34.406Z,11.50
2018-04-10T03:38:09.249Z,11.40
2018-04-10T03:40:44.784Z,11.40
2018-04-10T03:43:20.642Z,11.40
2018-04-10T03:45:56.291Z,11.40
2018-04-10T03:48:31.980Z,11.40
2018-04-10T03:51:07.761Z,11.40
2018-04-10T03:53:43.183Z,11.30
2018-04-10T03:56:19.584Z,11.20
2018-04-10T03:58:54.694Z,11.20
2018-04-10T04:01:30.285Z,11.20
2018-04-10T04:04:06.035Z,11.30
2018-04-10T04:06:41.894Z,11.20
2018-04-10T04:09:17.030Z,11.20
2018-04-10T04:11:52.313Z,11.10
2018-04-10T04:14:27.647Z,11.10
2018-04-10T04:17:14.325Z,11.10
2018-04-10T04:20:01.234Z,11.10
2018-04-10T04:22:40.160Z,11.10
2018-04-10T04:25:15.945Z,11.10
2018-04-10T04:27:50.879Z,11.20
2018-04-10T04:30:26.701Z,11.10
2018-04-10T04:33:02.359Z,11.10
2018-04-10T04:35:37.279Z,11.20
2018-04-10T04:38:12.314Z,11.20
2018-04-10T04:40:47.354Z,11.10
2018-04-10T04:43:22.487Z,11.20
2018-04-10T04:45:57.422Z,11.10
2018-04-10T04:48:33.479Z,11.20
2018-04-10T04:51:08.860Z,11.20
2018-04-10T04:53:44.372Z,11.20
2018-04-10T04:56:19.302Z,11.20
2018-04-10T04:58:55.053Z,11.20
2018-04-10T05:01:30.739Z,11.30
2018-04-10T05:04:06.047Z,11.30
2018-04-10T05:06:41.078Z,11.30
2018-04-10T05:09:16.271Z,11.30
2018-04-10T05:11:51.356Z,11.30
2018-04-10T05:14:26.391Z,11.30
2018-04-10T05:17:01.425Z,11.30
2018-04-10T05:19:36.704Z,11.40
2018-04-10T05:22:11.497Z,11.30
2018-04-10T05:24:46.529Z,11.30
2018-04-10T05:27:21.467Z,11.30
2018-04-10T05:29:57.131Z,11.30
2018-04-10T05:32:32.557Z,11.40
2018-04-10T05:35:07.592Z,11.30
2018-04-10T05:37:43.857Z,11.20
2018-04-10T05:40:19.506Z,11.10
2018-04-10T05:42:54.539Z,11.10
2018-04-10T05:45:29.474Z,11.20
2018-04-10T05:48:04.305Z,11.20
2018-04-10T05:50:39.136Z,11.20
2018-04-10T05:53:14.988Z,11.30
2018-04-10T05:55:50.021Z,11.30
2018-04-10T05:58:25.057Z,11.40
2018-04-10T06:01:00.091Z,11.40
2018-04-10T06:03:35.130Z,11.40
2018-04-10T06:06:10.368Z,11.40
2018-04-10T06:08:46.016Z,11.40
2018-04-10T06:11:21.674Z,11.50
2018-04-10T06:13:56.911Z,11.50
2018-04-10T06:16:31.839Z,11.60
2018-04-10T06:19:06.671Z,11.60
2018-04-10T06:21:41.538Z,11.60
2018-04-10T06:24:16.537Z,11.70
2018-04-10T06:26:51.369Z,11.70
2018-04-10T06:29:27.324Z,11.70
2018-04-10T06:32:02.772Z,11.80
2018-04-10T06:34:38.622Z,11.90
2018-04-10T06:37:13.688Z,12.00
2018-04-10T06:39:48.901Z,12.00
2018-04-10T06:42:23.730Z,12.00
2018-04-10T06:44:58.561Z,12.00
2018-04-10T06:47:33.390Z,12.00
2018-04-10T06:50:08.632Z,12.00
2018-04-10T06:52:43.599Z,12.10
2018-04-10T06:55:19.311Z,12.20
2018-04-10T06:57:54.141Z,12.40
2018-04-10T07:00:29.176Z,12.40
2018-04-10T07:03:04.212Z,12.60
2018-04-10T07:05:39.453Z,12.50
2018-04-10T07:08:14.285Z,12.50
2018-04-10T07:10:49.524Z,12.50
2018-04-10T07:13:24.702Z,12.60
2018-04-10T07:16:00.513Z,12.70
2018-04-10T07:18:35.344Z,12.90
2018-04-10T07:21:10.172Z,13.10
2018-04-10T07:23:45.012Z,13.20
2018-04-10T07:26:20.039Z,13.20
2018-04-10T07:28:54.983Z,13.10
2018-04-10T07:31:30.223Z,13.10
2018-04-10T07:34:05.908Z,13.50
2018-04-10T07:36:41.716Z,15.90
2018-04-10T07:39:16.449Z,15.90
2018-04-10T07:41:51.519Z,16.80
2018-04-10T07:44:27.244Z,17.80
2018-04-10T07:47:02.488Z,18.60
2018-04-10T07:49:37.300Z,18.70
2018-04-10T07:52:12.952Z,19.60
2018-04-10T07:54:47.782Z,19.60
2018-04-10T07:57:22.666Z,19.50
2018-04-10T07:59:58.367Z,18.90
2018-04-10T08:02:34.021Z,18.70
2018-04-10T08:05:09.456Z,18.70
2018-04-10T08:07:44.288Z,18.80
2018-04-10T08:10:19.938Z,18.80
2018-04-10T08:15:59.498Z,17.70
2018-04-10T08:18:34.331Z,17.70
2018-04-10T08:21:09.368Z,19.00
2018-04-10T08:23:44.137Z,19.70
2018-04-10T08:26:19.852Z,20.40
2018-04-10T08:28:54.774Z,20.30
2018-04-10T08:31:30.515Z,19.00
2018-04-10T08:34:06.175Z,17.40
2018-04-10T08:36:41.267Z,17.00
2018-04-10T08:39:16.968Z,17.10
2018-04-10T08:41:52.596Z,16.50
2018-04-10T08:44:27.648Z,16.40
2018-04-10T08:47:03.296Z,17.00
2018-04-10T08:49:38.132Z,18.30
2018-04-10T08:52:13.981Z,17.80
2018-04-10T08:54:49.732Z,17.40
2018-04-10T08:57:25.589Z,16.80
2018-04-10T09:00:01.241Z,16.40
2018-04-10T09:02:36.193Z,16.20
2018-04-10T09:05:11.064Z,15.50
2018-04-10T09:07:46.138Z,15.30
2018-04-10T09:10:22.815Z,15.20
2018-04-10T09:12:57.858Z,15.20
2018-04-10T09:15:33.502Z,15.50
2018-04-10T09:18:08.529Z,15.30
2018-04-10T09:20:43.775Z,15.80
2018-04-10T09:23:19.423Z,15.70
2018-04-10T09:25:55.074Z,15.50
2018-04-10T09:28:30.517Z,15.50
2018-04-10T09:31:05.347Z,16.10
2018-04-10T09:33:40.930Z,16.70
2018-04-10T09:36:16.647Z,16.60
2018-04-10T09:38:51.480Z,17.00
2018-04-10T09:47:36.076Z,16.20
2018-04-10T09:50:12.003Z,16.00
2018-04-10T09:52:47.686Z,16.20
2018-04-10T09:55:22.457Z,16.00
2018-04-10T09:57:58.164Z,15.80
2018-04-10T10:00:39.341Z,15.80
2018-04-10T10:03:14.378Z,15.90
2018-04-10T10:05:49.210Z,16.00
2018-04-10T10:08:24.241Z,16.00
2018-04-10T10:10:59.278Z,16.30
2018-04-10T10:13:34.423Z,16.50
2018-04-10T10:16:10.063Z,16.70
2018-04-10T10:18:45.200Z,16.90
2018-04-10T10:21:20.219Z,16.50
2018-04-10T10:23:55.064Z,16.40
2018-04-10T10:26:29.901Z,16.40
2018-04-10T10:29:04.729Z,16.70
2018-04-10T10:31:39.510Z,16.90
2018-04-10T10:34:14.337Z,16.00
2018-04-10T10:36:49.221Z,15.80
2018-04-10T10:39:25.074Z,15.80
2018-04-10T10:42:00.827Z,15.60
2018-04-10T10:44:36.476Z,16.20
2018-04-10T10:47:13.047Z,16.30
2018-04-10T10:49:48.082Z,16.30
2018-04-10T10:52:23.118Z,16.00
2018-04-10T10:54:58.226Z,16.40
2018-04-10T10:57:33.944Z,16.70
2018-04-10T11:00:09.759Z,16.40
2018-04-10T11:02:45.506Z,16.00
2018-04-10T11:05:21.060Z,16.20
2018-04-10T11:07:56.908Z,16.10
2018-04-10T11:10:31.738Z,16.10
2018-04-10T11:13:06.337Z,16.20
2018-04-10T11:15:41.300Z,16.60
2018-04-10T11:18:16.125Z,18.00
2018-04-10T11:20:50.958Z,18.50
2018-04-10T11:23:25.933Z,17.50
2018-04-10T11:26:02.563Z,19.30
2018-04-10T11:28:37.599Z,19.30
2018-04-10T11:31:14.005Z,18.10
2018-04-10T11:33:49.124Z,17.90
2018-04-10T11:36:24.140Z,17.50
2018-04-10T11:38:59.177Z,18.40
2018-04-10T11:41:34.215Z,18.80
2018-04-10T11:44:09.247Z,18.30
2018-04-10T11:46:44.283Z,18.20
2018-04-10T11:49:19.111Z,18.30
2018-04-10T11:51:53.939Z,17.70
2018-04-10T11:54:28.770Z,18.40
2018-04-10T11:57:03.807Z,18.60
2018-04-10T11:59:39.666Z,18.10
2018-04-10T12:02:15.313Z,18.00
2018-04-10T12:04:50.246Z,17.60
2018-04-10T12:07:25.071Z,17.80
2018-04-10T12:10:00.725Z,17.30
2018-04-10T12:12:36.471Z,17.00
2018-04-10T12:15:11.301Z,17.10
2018-04-10T12:17:46.849Z,17.30
2018-04-10T12:20:21.885Z,16.90
2018-04-10T12:22:56.920Z,17.00
2018-04-10T12:25:31.750Z,16.80
2018-04-10T12:28:06.785Z,16.90
2018-04-10T12:30:42.691Z,16.80
2018-04-10T12:33:18.807Z,16.80
2018-04-10T12:35:54.353Z,16.40
2018-04-10T12:38:29.530Z,16.40
2018-04-10T12:41:05.032Z,16.80
2018-04-10T12:43:40.209Z,16.70
2018-04-10T12:46:15.316Z,16.80
2018-04-10T12:48:50.346Z,16.80
2018-04-10T12:51:25.379Z,16.60
2018-04-10T12:54:00.237Z,16.10
2018-04-10T12:56:35.039Z,16.10
2018-04-10T12:59:11.100Z,16.30
2018-04-10T13:01:46.132Z,16.30
2018-04-10T13:04:21.790Z,16.20
2018-04-10T13:06:57.635Z,16.50
2018-04-10T13:09:32.979Z,16.60
2018-04-10T13:12:08.631Z,16.70
2018-04-10T13:14:43.867Z,17.00
2018-04-10T13:17:19.456Z,17.10
2018-04-10T13:19:55.272Z,17.30
2018-04-10T13:22:30.408Z,17.30
2018-04-10T13:25:05.339Z,17.70
2018-04-10T13:27:41.094Z,17.80
2018-04-10T13:30:16.942Z,17.80
2018-04-10T13:32:52.601Z,17.70
2018-04-10T13:35:28.344Z,17.70
2018-04-10T13:38:04.039Z,17.50
2018-04-10T13:40:39.033Z,17.40
2018-04-10T13:43:13.867Z,17.40
2018-04-10T13:45:48.693Z,16.80
2018-04-10T13:48:23.931Z,16.40
2018-04-10T13:50:58.761Z,16.10
2018-04-10T13:53:33.598Z,16.10
2018-04-10T13:56:08.838Z,16.10
2018-04-10T13:58:44.480Z,16.00
2018-04-10T14:01:19.515Z,16.30
2018-04-10T14:03:54.350Z,16.50
2018-04-10T14:06:29.482Z,16.80
2018-04-10T14:09:04.351Z,16.90
2018-04-10T14:11:41.089Z,16.80
2018-04-10T14:14:16.126Z,16.80
2018-04-10T14:16:50.961Z,16.90
2018-04-10T14:19:25.768Z,16.90
2018-04-10T14:22:01.642Z,16.80
2018-04-10T14:24:37.288Z,16.90
2018-04-10T14:27:12.324Z,17.00
2018-04-10T14:29:48.693Z,16.60
2018-04-10T14:32:24.752Z,16.60
2018-04-10T14:34:59.784Z,16.60
2018-04-10T14:37:35.025Z,16.60
2018-04-10T14:40:09.860Z,16.60
2018-04-10T14:42:45.714Z,16.70
2018-04-10T14:45:21.154Z,17.10
2018-04-10T14:47:56.418Z,16.90
2018-04-10T14:50:31.429Z,16.80
2018-04-10T14:53:06.464Z,16.80
2018-04-10T14:55:42.323Z,16.70
2018-04-10T14:58:17.363Z,16.90
2018-04-10T15:00:52.389Z,17.00
2018-04-10T15:03:28.971Z,16.80
2018-04-10T15:06:04.353Z,16.80
2018-04-10T15:08:39.847Z,16.50
2018-04-10T15:11:14.996Z,16.30
2018-04-10T15:13:49.837Z,16.50
2018-04-10T15:16:25.677Z,16.70
2018-04-10T15:19:01.126Z,16.70
2018-04-10T15:21:35.946Z,16.90
2018-04-10T15:24:11.598Z,16.20
2018-04-10T15:26:46.438Z,16.30
2018-04-10T15:29:21.198Z,16.10
2018-04-10T15:31:56.189Z,16.30
2018-04-10T15:34:32.453Z,16.20
2018-04-10T15:37:07.499Z,16.20
2018-04-10T15:39:42.728Z,16.10
2018-04-10T15:42:18.088Z,17.00
2018-04-10T15:44:52.902Z,16.00
2018-04-10T15:47:27.736Z,15.90
2018-04-10T15:50:02.773Z,16.00
2018-04-10T15:52:37.500Z,16.20
2018-04-10T15:55:13.144Z,16.30
2018-04-10T15:57:47.876Z,16.20
2018-04-10T16:00:22.804Z,16.30
2018-04-10T16:02:58.453Z,16.10
2018-04-10T16:05:34.309Z,15.90
2018-04-10T16:08:10.507Z,16.00
2018-04-10T16:10:45.612Z,15.90
2018-04-10T16:13:20.343Z,16.10
2018-04-10T16:15:56.294Z,15.80
2018-04-10T16:18:31.329Z,15.90
2018-04-10T16:21:06.569Z,16.10
2018-04-10T16:23:42.829Z,16.20
2018-04-10T16:26:17.865Z,16.20
2018-04-10T16:28:53.730Z,16.20
2018-04-10T16:31:29.573Z,16.00
2018-04-10T16:34:05.373Z,15.80
2018-04-10T16:36:40.873Z,16.00
2018-04-10T16:39:15.906Z,16.00
2018-04-10T16:41:50.942Z,16.10
2018-04-10T16:44:26.594Z,16.00
2018-04-10T16:47:01.319Z,15.80
2018-04-10T16:49:36.457Z,15.50
2018-04-10T16:52:12.215Z,15.50
2018-04-10T16:54:47.794Z,15.40
2018-04-10T16:57:22.699Z,15.40
2018-04-10T16:59:58.746Z,15.30
2018-04-10T17:02:34.096Z,15.30
2018-04-10T17:05:09.946Z,15.30
2018-04-10T17:07:44.874Z,15.40
2018-04-10T17:10:19.809Z,15.40
2018-04-10T17:12:55.364Z,15.50
2018-04-10T17:15:30.188Z,15.50
2018-04-10T17:18:05.018Z,15.30
2018-04-10T17:20:40.289Z,15.30
2018-04-10T17:23:16.325Z,15.30
2018-04-10T17:25:51.301Z,15.30
2018-04-10T17:28:26.180Z,15.30
2018-04-10T17:31:01.015Z,15.20
2018-04-10T17:33:36.867Z,15.20
2018-04-10T17:36:12.722Z,15.30
2018-04-10T17:38:48.588Z,15.10
2018-04-10T17:41:25.465Z,15.10
2018-04-10T17:44:01.316Z,15.10
2018-04-10T17:46:36.955Z,15.20
2018-04-10T17:49:13.638Z,15.20
2018-04-10T17:51:48.862Z,15.20
2018-04-10T17:54:24.560Z,15.30
2018-04-10T17:57:00.420Z,15.30
2018-04-10T17:59:35.923Z,15.20
2018-04-10T18:02:10.756Z,15.30
2018-04-10T18:04:45.886Z,15.30
2018-04-10T18:07:21.539Z,15.30
2018-04-10T18:09:58.218Z,15.30
2018-04-10T18:12:33.466Z,15.10
2018-04-10T18:15:10.127Z,15.10
2018-04-10T18:17:45.886Z,15.20
2018-04-10T18:20:21.117Z,15.20
2018-04-10T18:22:56.150Z,15.20
2018-04-10T18:25:32.008Z,15.20
2018-04-10T18:28:08.373Z,15.10
2018-04-10T18:30:43.616Z,15.10
2018-04-10T18:33:18.446Z,15.10
2018-04-10T18:35:53.699Z,15.10
2018-04-10T18:38:28.513Z,15.00
2018-04-10T18:41:03.588Z,15.00
2018-04-10T18:43:39.406Z,15.00
2018-04-10T18:46:14.240Z,15.00
2018-04-10T18:48:49.477Z,14.90
2018-04-10T18:51:24.509Z,14.70
2018-04-10T18:54:00.364Z,14.70
2018-04-10T18:56:36.229Z,14.60
2018-04-10T18:59:11.252Z,14.70
2018-04-10T19:01:46.287Z,14.80
2018-04-10T19:04:22.748Z,14.70
2018-04-10T19:06:57.790Z,14.70
2018-04-10T19:09:33.852Z,14.60
2018-04-10T19:12:10.111Z,14.60
2018-04-10T19:14:45.146Z,14.50
2018-04-10T19:17:20.285Z,14.50
2018-04-10T19:19:56.037Z,14.40
2018-04-10T19:22:31.891Z,14.40
2018-04-10T19:25:07.756Z,14.50
2018-04-10T19:27:42.615Z,14.50
2018-04-10T19:30:17.717Z,14.50
2018-04-10T19:32:54.372Z,14.60
2018-04-10T19:35:29.368Z,14.60
2018-04-10T19:38:05.076Z,14.60
2018-04-10T19:40:40.383Z,14.60
2018-04-10T19:43:15.548Z,14.50
2018-04-10T19:45:50.592Z,14.50
2018-04-10T19:48:25.441Z,14.40
2018-04-10T19:51:01.070Z,14.40
2018-04-10T19:53:36.396Z,14.40
2018-04-10T19:56:11.445Z,14.40
2018-04-10T19:58:46.272Z,14.40
2018-04-10T20:01:21.454Z,14.40
2018-04-10T20:03:57.161Z,14.40
2018-04-10T20:06:32.814Z,14.50
2018-04-10T20:09:07.847Z,14.40
2018-04-10T20:11:43.451Z,14.30
2018-04-10T20:14:18.741Z,14.40
2018-04-10T20:16:53.981Z,14.40
2018-04-10T20:19:29.012Z,14.40
2018-04-10T20:22:04.871Z,14.40
2018-04-10T20:24:40.112Z,14.40
2018-04-10T20:27:15.966Z,14.40
2018-04-10T20:29:51.627Z,14.40
2018-04-10T20:32:26.648Z,14.40
2018-04-10T20:35:01.681Z,14.40
2018-04-10T20:37:36.716Z,14.30
2018-04-10T20:40:12.364Z,14.30
2018-04-10T20:42:48.217Z,14.40
2018-04-10T20:45:23.458Z,14.50
2018-04-10T20:47:58.495Z,14.50
2018-04-10T20:50:34.961Z,14.60
2018-04-10T20:53:09.933Z,14.60
2018-04-10T20:55:45.045Z,14.60
2018-04-10T20:58:19.796Z,14.60
2018-04-10T21:00:54.800Z,14.60
2018-04-10T21:03:29.625Z,14.60
2018-04-10T21:06:04.659Z,14.60
2018-04-10T21:08:39.385Z,14.60
2018-04-10T21:11:14.735Z,14.70
2018-04-10T21:13:50.283Z,14.60
2018-04-10T21:16:25.627Z,14.60
2018-04-10T21:19:00.865Z,14.60
2018-04-10T21:21:35.838Z,14.70
2018-04-10T21:24:11.479Z,14.50
2018-04-10T21:26:46.518Z,14.50
2018-04-10T21:29:22.230Z,14.30
2018-04-10T21:31:57.265Z,14.20
2018-04-10T21:34:32.300Z,13.30
2018-04-10T21:37:07.132Z,12.80
2018-04-10T21:39:42.172Z,12.50
2018-04-10T21:42:18.020Z,12.50
2018-04-10T21:44:53.671Z,12.50
2018-04-10T21:47:28.501Z,12.60
2018-04-10T21:50:03.742Z,12.60
2018-04-10T21:52:39.042Z,12.60
2018-04-10T21:55:14.568Z,12.80
2018-04-10T21:57:49.775Z,12.80
2018-04-10T22:00:25.621Z,12.80
2018-04-10T22:03:00.419Z,12.80
2018-04-10T22:05:36.122Z,12.80
2018-04-10T22:08:10.932Z,12.80
2018-04-10T22:10:46.581Z,12.80
2018-04-10T22:13:21.616Z,12.50
2018-04-10T22:15:56.415Z,11.60
2018-04-10T22:18:31.462Z,11.30
2018-04-10T22:21:07.333Z,11.30
2018-04-10T22:23:42.985Z,11.30
2018-04-10T22:26:17.819Z,11.20
2018-04-10T22:28:52.648Z,11.20
2018-04-10T22:31:29.220Z,11.10
2018-04-10T22:34:05.091Z,11.10
2018-04-10T22:36:40.892Z,11.30
2018-04-10T22:39:15.934Z,11.30
2018-04-10T22:41:51.479Z,11.40
2018-04-10T22:44:26.512Z,11.60
2018-04-10T22:47:01.761Z,11.60
2018-04-10T22:49:37.299Z,11.50
2018-04-10T22:52:12.130Z,11.70
2018-04-10T22:54:47.609Z,11.80
2018-04-10T22:57:22.710Z,11.90
2018-04-10T22:59:58.093Z,11.80
2018-04-10T23:02:34.218Z,11.90
2018-04-10T23:05:09.457Z,11.90
2018-04-10T23:07:44.401Z,11.90
2018-04-10T23:10:20.407Z,11.70
2018-04-10T23:12:56.727Z,11.80
2018-04-10T23:15:34.329Z,11.80
2018-04-10T23:18:09.371Z,11.90
2018-04-10T23:20:45.432Z,11.80
2018-04-10T23:23:20.099Z,11.90
2018-04-10T23:25:55.096Z,11.90
2018-04-10T23:28:29.925Z,11.90
2018-04-10T23:31:05.064Z,11.90
2018-04-10T23:33:40.920Z,12.00
2018-04-10T23:36:15.955Z,12.00
2018-04-10T23:38:51.094Z,12.00
2018-04-10T23:41:25.931Z,12.10
2018-04-10T23:44:00.965Z,12.10
2018-04-10T23:46:37.635Z,12.10
2018-04-10T23:49:13.491Z,12.20
2018-04-10T23:51:48.528Z,12.20
2018-04-10T23:54:23.357Z,12.30
2018-04-10T23:56:58.592Z,12.30
2018-04-10T23:59:33.364Z,12.30
